Time;durP1;ratioP1;P1;durP2;ratioP2;P2;SDS_P1;SDS_P2;PMS_P1;PMS_P2;Temp;Humidity;BMP_temperature;BMP_pressure;BME280_temperature;BME280_humidity;BME280_pressure;Samples;Min_cycle;Max_cycle;Signal;HPM_P1;HPM_P2
2023/07/04 00:01:16;;;;;;;15.40;10.57;;;;;;;;;;5074157;28;20472;-77
2023/07/04 00:03:44;;;;;;;15.00;10.37;;;;;;;;;;5073975;28;20450;-77
2023/07/04 00:06:13;;;;;;;13.23;9.67;;;;;;;;;;5073859;28;20451;-77
2023/07/04 00:08:41;;;;;;;16.00;10.77;;;;;;;;;;5073586;28;20920;-77
2023/07/04 00:11:08;;;;;;;15.33;9.90;;;;;;;;;;5074038;28;20497;-77
2023/07/04 00:13:37;;;;;;;14.40;10.77;;;;;;;;;;5073911;28;20579;-77
2023/07/04 00:16:06;;;;;;;20.93;10.70;;;;;;;;;;5074000;28;20483;-77
2023/07/04 00:18:36;;;;;;;12.93;9.10;;;;;;;;;;5073849;28;20463;-77
2023/07/04 00:21:06;;;;;;;12.60;9.77;;;;;;;;;;5091519;28;21049;-77
2023/07/04 00:23:34;;;;;;;17.17;11.20;;;;;;;;;;5093324;28;20825;-77
2023/07/04 00:26:02;;;;;;;17.00;10.17;;;;;;;;;;5092856;28;20431;-77
2023/07/04 00:28:29;;;;;;;13.50;10.00;;;;;;;;;;5093321;28;20924;-77
2023/07/04 00:30:57;;;;;;;15.93;10.50;;;;;;;;;;5093659;28;20480;-77
2023/07/04 00:33:25;;;;;;;15.20;9.77;;;;;;;;;;5094260;28;20509;-77
2023/07/04 00:36:01;;;;;;;14.13;9.57;;;;;;;;;;5093077;28;20810;-77
2023/07/04 00:38:32;;;;;;;13.50;10.20;;;;;;;;;;5092895;28;20454;-77
2023/07/04 00:41:01;;;;;;;13.40;10.33;;;;;;;;;;5092840;28;20467;-77
2023/07/04 00:43:45;;;;;;;16.33;10.90;;;;;;;;;;5093012;28;20458;-77
2023/07/04 00:46:14;;;;;;;13.63;10.20;;;;;;;;;;5097274;28;20454;-77
2023/07/04 00:48:44;;;;;;;19.57;9.60;;;;;;;;;;5097136;28;20462;-77
2023/07/04 00:51:21;;;;;;;16.50;10.77;;;;;;;;;;5097131;28;20470;-77
2023/07/04 00:53:50;;;;;;;22.33;10.63;;;;;;;;;;5097154;28;20493;-77
2023/07/04 00:56:17;;;;;;;15.63;9.57;;;;;;;;;;5096833;28;20447;-77
2023/07/04 00:58:45;;;;;;;14.90;10.97;;;;;;;;;;5096673;28;20889;-77
2023/07/04 01:01:12;;;;;;;18.90;10.77;;;;;;;;;;5096863;28;21001;-77
2023/07/04 01:03:39;;;;;;;19.37;11.07;;;;;;;;;;5096629;28;20443;-77
2023/07/04 01:06:10;;;;;;;14.47;11.17;;;;;;;;;;5096633;28;20946;-77
2023/07/04 01:08:41;;;;;;;17.90;10.40;;;;;;;;;;5096016;28;20454;-77
2023/07/04 01:11:11;;;;;;;13.90;10.43;;;;;;;;;;5096190;28;20474;-77
2023/07/04 01:13:39;;;;;;;20.03;11.50;;;;;;;;;;5095915;28;20487;-77
2023/07/04 01:16:09;;;;;;;13.00;10.27;;;;;;;;;;5096332;28;20451;-77
2023/07/04 01:18:37;;;;;;;19.57;11.00;;;;;;;;;;5095622;28;20465;-76
2023/07/04 01:21:05;;;;;;;15.47;10.57;;;;;;;;;;5095792;28;20917;-77
2023/07/04 01:23:35;;;;;;;14.43;9.87;;;;;;;;;;5096003;28;20458;-77
2023/07/04 01:26:10;;;;;;;22.60;11.20;;;;;;;;;;5096129;28;20831;-76
2023/07/04 01:28:37;;;;;;;18.77;10.83;;;;;;;;;;5095613;28;20454;-77
2023/07/04 01:31:05;;;;;;;18.03;11.37;;;;;;;;;;5095674;28;20478;-77
2023/07/04 01:33:33;;;;;;;25.40;11.30;;;;;;;;;;5095754;28;20447;-77
2023/07/04 01:36:00;;;;;;;16.97;11.00;;;;;;;;;;5095799;28;20438;-76
2023/07/04 01:38:30;;;;;;;17.17;10.63;;;;;;;;;;5095614;28;20811;-77
2023/07/04 01:40:58;;;;;;;15.60;10.57;;;;;;;;;;5096239;28;20474;-78
2023/07/04 01:43:26;;;;;;;18.50;10.80;;;;;;;;;;5096833;28;20465;-77
2023/07/04 01:45:53;;;;;;;15.73;11.50;;;;;;;;;;5096375;28;20451;-77
2023/07/04 01:48:20;;;;;;;18.20;11.43;;;;;;;;;;5095609;28;20451;-77
2023/07/04 01:50:48;;;;;;;14.90;10.60;;;;;;;;;;5095140;28;20516;-77
2023/07/04 01:53:16;;;;;;;14.23;10.87;;;;;;;;;;5095804;28;20456;-76
2023/07/04 01:55:44;;;;;;;15.53;11.50;;;;;;;;;;5095251;28;20486;-77
2023/07/04 01:58:11;;;;;;;16.93;10.17;;;;;;;;;;5095303;28;20482;-77
2023/07/04 02:00:39;;;;;;;15.70;11.90;;;;;;;;;;5095439;28;20474;-77
2023/07/04 02:03:07;;;;;;;19.33;12.23;;;;;;;;;;5095892;28;20485;-77
2023/07/04 02:05:34;;;;;;;15.50;11.00;;;;;;;;;;5095374;28;20442;-77
2023/07/04 02:08:01;;;;;;;19.80;10.60;;;;;;;;;;5095099;28;20454;-77
2023/07/04 02:10:28;;;;;;;16.43;10.80;;;;;;;;;;5094764;28;20844;-77
2023/07/04 02:12:55;;;;;;;16.57;11.07;;;;;;;;;;5095002;28;20454;-77
2023/07/04 02:15:23;;;;;;;15.30;10.10;;;;;;;;;;5094613;28;20487;-77
2023/07/04 02:17:52;;;;;;;19.03;10.13;;;;;;;;;;5095043;28;20490;-77
2023/07/04 02:20:20;;;;;;;17.83;9.87;;;;;;;;;;5094615;28;20482;-77
2023/07/04 02:22:47;;;;;;;15.77;10.17;;;;;;;;;;5094940;28;20951;-77
2023/07/04 02:25:14;;;;;;;15.67;10.70;;;;;;;;;;5094543;28;20446;-77
2023/07/04 02:27:42;;;;;;;25.73;12.47;;;;;;;;;;5094559;28;20851;-77
2023/07/04 02:30:10;;;;;;;16.17;10.93;;;;;;;;;;5095254;28;20470;-77
2023/07/04 02:32:37;;;;;;;19.03;10.90;;;;;;;;;;5095550;28;20550;-77
2023/07/04 02:35:06;;;;;;;23.70;11.00;;;;;;;;;;5094915;28;20573;-77
2023/07/04 02:37:33;;;;;;;17.93;10.53;;;;;;;;;;5094819;28;20451;-77
2023/07/04 02:40:00;;;;;;;13.90;10.20;;;;;;;;;;5095110;28;20461;-77
2023/07/04 02:42:27;;;;;;;19.73;11.47;;;;;;;;;;5094616;28;20457;-76
2023/07/04 02:44:54;;;;;;;13.50;10.93;;;;;;;;;;5094847;28;20458;-76
2023/07/04 02:47:25;;;;;;;15.83;10.03;;;;;;;;;;5094414;28;20825;-76
2023/07/04 02:49:53;;;;;;;15.00;9.50;;;;;;;;;;5094599;28;20545;-76
2023/07/04 02:52:23;;;;;;;19.73;11.40;;;;;;;;;;5094524;28;20500;-78
2023/07/04 02:54:50;;;;;;;20.10;10.70;;;;;;;;;;5094259;28;20485;-77
2023/07/04 02:57:17;;;;;;;16.20;11.23;;;;;;;;;;5094495;28;20458;-77
2023/07/04 02:59:45;;;;;;;15.67;9.80;;;;;;;;;;5094849;28;21034;-77
2023/07/04 03:02:12;;;;;;;13.83;9.70;;;;;;;;;;5094773;28;20450;-77
2023/07/04 03:04:39;;;;;;;13.90;9.33;;;;;;;;;;5094523;28;20455;-77
2023/07/04 03:07:06;;;;;;;10.17;8.10;;;;;;;;;;5093768;28;20791;-76
2023/07/04 03:09:35;;;;;;;12.47;8.67;;;;;;;;;;5094047;28;20455;-76
2023/07/04 03:12:02;;;;;;;15.40;9.53;;;;;;;;;;5094229;28;20972;-76
2023/07/04 03:14:29;;;;;;;18.43;11.90;;;;;;;;;;5093805;28;20487;-76
2023/07/04 03:16:56;;;;;;;17.00;11.10;;;;;;;;;;5094143;28;20813;-77
2023/07/04 03:19:23;;;;;;;15.07;10.20;;;;;;;;;;5093843;28;20450;-77
2023/07/04 03:21:50;;;;;;;24.03;10.77;;;;;;;;;;5093298;28;20532;-77
2023/07/04 03:24:20;;;;;;;16.53;10.23;;;;;;;;;;5092742;28;20443;-77
2023/07/04 03:26:49;;;;;;;15.07;10.80;;;;;;;;;;5092477;28;20474;-77
2023/07/04 03:29:16;;;;;;;17.20;9.60;;;;;;;;;;5092793;28;20458;-77
2023/07/04 03:31:43;;;;;;;20.07;9.53;;;;;;;;;;5093056;28;20466;-77
2023/07/04 03:34:10;;;;;;;21.20;10.87;;;;;;;;;;5092648;28;20451;-76
2023/07/04 03:36:37;;;;;;;19.70;9.90;;;;;;;;;;5092677;28;20447;-77
2023/07/04 03:39:05;;;;;;;16.00;10.07;;;;;;;;;;5092159;28;20446;-77
2023/07/04 03:41:33;;;;;;;11.90;9.03;;;;;;;;;;5092641;28;20478;-77
2023/07/04 03:44:01;;;;;;;15.40;10.80;;;;;;;;;;5092975;28;20789;-77
2023/07/04 03:46:28;;;;;;;13.87;10.00;;;;;;;;;;5092743;28;20439;-77
2023/07/04 03:48:55;;;;;;;16.47;9.20;;;;;;;;;;5092939;28;20883;-77
2023/07/04 03:51:23;;;;;;;23.20;9.00;;;;;;;;;;5092591;28;20501;-76
2023/07/04 03:53:50;;;;;;;16.67;10.07;;;;;;;;;;5092816;28;20462;-77
2023/07/04 03:56:17;;;;;;;14.10;9.10;;;;;;;;;;5093019;28;20510;-77
2023/07/04 03:58:44;;;;;;;12.80;8.87;;;;;;;;;;5092863;28;20451;-76
2023/07/04 04:01:12;;;;;;;12.90;8.23;;;;;;;;;;5092573;28;20847;-77
2023/07/04 04:03:40;;;;;;;11.67;7.80;;;;;;;;;;5092649;28;20458;-77
2023/07/04 04:06:07;;;;;;;10.10;7.20;;;;;;;;;;5092665;28;20457;-77
2023/07/04 04:08:34;;;;;;;10.90;6.93;;;;;;;;;;5092424;28;20777;-76
2023/07/04 04:11:02;;;;;;;18.93;7.13;;;;;;;;;;5092694;28;20975;-77
2023/07/04 04:13:29;;;;;;;12.10;6.33;;;;;;;;;;5092774;28;20469;-77
2023/07/04 04:15:56;;;;;;;8.03;6.37;;;;;;;;;;5092413;28;20494;-76
2023/07/04 04:18:25;;;;;;;10.00;7.13;;;;;;;;;;5092340;28;20464;-77
2023/07/04 04:20:52;;;;;;;11.53;6.73;;;;;;;;;;5095586;28;20489;-78
2023/07/04 04:23:19;;;;;;;9.80;7.07;;;;;;;;;;5096447;28;20454;-77
2023/07/04 04:25:46;;;;;;;12.17;6.90;;;;;;;;;;5096336;28;20455;-78
2023/07/04 04:28:13;;;;;;;16.20;6.60;;;;;;;;;;5096080;28;20544;-77
2023/07/04 04:30:41;;;;;;;6.90;5.60;;;;;;;;;;5096006;28;20466;-77
2023/07/04 04:33:09;;;;;;;10.67;6.33;;;;;;;;;;5096033;28;20545;-77
2023/07/04 04:35:39;;;;;;;8.33;5.40;;;;;;;;;;5095203;28;20486;-77
2023/07/04 04:38:07;;;;;;;8.33;6.30;;;;;;;;;;5095694;28;20461;-77
2023/07/04 04:40:34;;;;;;;9.27;5.93;;;;;;;;;;5095503;28;21073;-77
2023/07/04 04:43:02;;;;;;;12.73;7.10;;;;;;;;;;5095940;28;20849;-77
2023/07/04 04:45:29;;;;;;;9.67;5.77;;;;;;;;;;5095964;28;20550;-77
2023/07/04 04:47:56;;;;;;;8.70;7.37;;;;;;;;;;5095659;28;20950;-77
2023/07/04 04:50:24;;;;;;;10.40;6.17;;;;;;;;;;5096280;28;20477;-77
2023/07/04 04:52:53;;;;;;;9.67;6.10;;;;;;;;;;5096386;28;20524;-76
2023/07/04 04:55:20;;;;;;;7.60;5.43;;;;;;;;;;5095994;28;20489;-77
2023/07/04 04:57:47;;;;;;;8.70;6.23;;;;;;;;;;5096355;28;20449;-77
2023/07/04 05:00:16;;;;;;;9.07;5.43;;;;;;;;;;5096324;28;21030;-77
2023/07/04 05:02:44;;;;;;;7.97;6.00;;;;;;;;;;5096263;28;20461;-77
2023/07/04 05:05:12;;;;;;;10.57;5.00;;;;;;;;;;5096566;28;20454;-77
2023/07/04 05:07:39;;;;;;;7.00;4.93;;;;;;;;;;5095764;28;20450;-78
2023/07/04 05:10:08;;;;;;;6.97;4.33;;;;;;;;;;5096459;28;20816;-77
2023/07/04 05:12:35;;;;;;;5.87;4.73;;;;;;;;;;5087274;28;20448;-78
2023/07/04 05:15:03;;;;;;;6.87;4.40;;;;;;;;;;5075692;28;20491;-77
2023/07/04 05:17:30;;;;;;;6.93;4.47;;;;;;;;;;5075746;28;20968;-77
2023/07/04 05:19:58;;;;;;;9.47;4.50;;;;;;;;;;5075190;28;20483;-77
2023/07/04 05:22:25;;;;;;;12.00;6.03;;;;;;;;;;5075688;28;20495;-77
2023/07/04 05:24:53;;;;;;;9.53;6.20;;;;;;;;;;5075633;28;20459;-77
2023/07/04 05:27:21;;;;;;;10.97;4.70;;;;;;;;;;5075229;28;20956;-77
2023/07/04 05:29:48;;;;;;;6.73;5.00;;;;;;;;;;5075473;28;20454;-77
2023/07/04 05:32:15;;;;;;;6.60;4.60;;;;;;;;;;5075377;28;20448;-78
2023/07/04 05:34:43;;;;;;;12.60;3.77;;;;;;;;;;5076091;28;20452;-78
2023/07/04 05:37:10;;;;;;;8.57;5.20;;;;;;;;;;5076269;28;20451;-78
2023/07/04 05:39:37;;;;;;;5.93;4.50;;;;;;;;;;5076379;28;20462;-78
2023/07/04 05:42:04;;;;;;;5.17;4.57;;;;;;;;;;5076322;28;20452;-78
2023/07/04 05:44:33;;;;;;;4.57;4.17;;;;;;;;;;5076347;28;20463;-78
2023/07/04 05:47:00;;;;;;;7.70;3.60;;;;;;;;;;5076252;28;20455;-77
2023/07/04 05:49:27;;;;;;;5.80;4.03;;;;;;;;;;5076404;28;20448;-78
2023/07/04 05:51:54;;;;;;;4.40;3.10;;;;;;;;;;5076419;28;20483;-77
2023/07/04 05:54:21;;;;;;;8.30;3.47;;;;;;;;;;5076182;28;20467;-77
2023/07/04 05:56:52;;;;;;;7.20;3.40;;;;;;;;;;5075943;28;20848;-78
2023/07/04 05:59:19;;;;;;;5.20;4.03;;;;;;;;;;5076645;28;20448;-77
2023/07/04 06:01:48;;;;;;;5.10;3.53;;;;;;;;;;5076606;28;20475;-77
2023/07/04 06:04:15;;;;;;;4.73;3.80;;;;;;;;;;5076520;28;20927;-78
2023/07/04 06:06:43;;;;;;;6.30;3.70;;;;;;;;;;5075811;28;20443;-78
2023/07/04 06:09:12;;;;;;;6.33;4.00;;;;;;;;;;5075945;28;20447;-77
2023/07/04 06:11:43;;;;;;;8.10;4.00;;;;;;;;;;5075478;28;20478;-78
2023/07/04 06:14:11;;;;;;;4.13;3.47;;;;;;;;;;5076562;28;20558;-78
2023/07/04 06:16:38;;;;;;;6.27;3.30;;;;;;;;;;5075445;28;20484;-77
2023/07/04 06:19:06;;;;;;;5.30;3.70;;;;;;;;;;5075495;28;20925;-77
2023/07/04 06:21:33;;;;;;;9.37;4.50;;;;;;;;;;5075875;28;20570;-78
2023/07/04 06:24:01;;;;;;;7.07;3.67;;;;;;;;;;5075539;28;20451;-77
2023/07/04 06:26:32;;;;;;;6.60;3.47;;;;;;;;;;5075175;28;20486;-78
2023/07/04 06:28:59;;;;;;;8.30;4.10;;;;;;;;;;5074789;28;20547;-78
2023/07/04 06:31:27;;;;;;;4.93;3.73;;;;;;;;;;5075590;28;20510;-78
2023/07/04 06:33:55;;;;;;;5.43;3.67;;;;;;;;;;5075393;28;20454;-78
2023/07/04 06:36:23;;;;;;;4.30;3.40;;;;;;;;;;5075337;28;20999;-79
2023/07/04 06:38:51;;;;;;;6.30;3.93;;;;;;;;;;5073944;28;20505;-78
2023/07/04 06:41:19;;;;;;;4.80;3.83;;;;;;;;;;5074545;28;20476;-76
2023/07/04 06:43:47;;;;;;;6.00;3.90;;;;;;;;;;5072758;28;20452;-77
2023/07/04 06:46:15;;;;;;;8.83;3.90;;;;;;;;;;5073518;28;20562;-78
2023/07/04 06:48:42;;;;;;;7.23;3.27;;;;;;;;;;5073442;28;20466;-77
2023/07/04 06:51:12;;;;;;;5.70;3.23;;;;;;;;;;5073405;28;20471;-77
2023/07/04 06:53:41;;;;;;;3.87;3.23;;;;;;;;;;5073327;28;20460;-77
2023/07/04 06:56:09;;;;;;;8.97;3.40;;;;;;;;;;5073010;28;20520;-77
2023/07/04 06:58:37;;;;;;;8.17;3.60;;;;;;;;;;5072785;28;20928;-77
2023/07/04 07:01:05;;;;;;;5.03;3.17;;;;;;;;;;5073168;28;20487;-78
2023/07/04 07:03:32;;;;;;;4.40;3.20;;;;;;;;;;5073847;28;20736;-76
2023/07/04 07:06:02;;;;;;;4.30;2.93;;;;;;;;;;5074540;28;20810;-78
2023/07/04 07:08:30;;;;;;;4.03;2.97;;;;;;;;;;5073735;28;20931;-76
2023/07/04 07:10:59;;;;;;;4.73;3.03;;;;;;;;;;5073847;28;20476;-76
2023/07/04 07:13:26;;;;;;;3.60;2.73;;;;;;;;;;5072747;28;20904;-77
2023/07/04 07:15:54;;;;;;;6.70;3.37;;;;;;;;;;5072643;28;20492;-76
2023/07/04 07:18:21;;;;;;;3.47;2.73;;;;;;;;;;5072297;28;20463;-77
2023/07/04 07:20:48;;;;;;;3.23;2.80;;;;;;;;;;5073285;28;20582;-77
2023/07/04 07:23:16;;;;;;;3.57;2.80;;;;;;;;;;5072746;28;20455;-76
2023/07/04 07:25:43;;;;;;;2.97;2.50;;;;;;;;;;5072640;28;20478;-77
2023/07/04 07:28:11;;;;;;;2.73;2.20;;;;;;;;;;5073085;28;20928;-77
2023/07/04 07:30:38;;;;;;;4.00;2.70;;;;;;;;;;5073422;28;20472;-77
2023/07/04 07:33:05;;;;;;;3.83;2.40;;;;;;;;;;5072511;28;20456;-77
2023/07/04 07:38:36;;;;;;;3.90;2.93;;;;;;;;;;5072011;28;20403;-77
2023/07/04 07:41:04;;;;;;;2.33;2.10;;;;;;;;;;5074397;28;20463;-79
2023/07/04 07:43:33;;;;;;;5.70;3.20;;;;;;;;;;5074921;28;20983;-78
2023/07/04 07:46:00;;;;;;;6.97;3.17;;;;;;;;;;5075160;28;20447;-78
2023/07/04 07:48:27;;;;;;;3.33;2.63;;;;;;;;;;5075287;28;20451;-77
2023/07/04 07:50:55;;;;;;;6.63;2.83;;;;;;;;;;5074568;28;20460;-78
2023/07/04 07:53:22;;;;;;;2.20;2.00;;;;;;;;;;5073928;28;20470;-78
2023/07/04 07:55:49;;;;;;;3.53;2.00;;;;;;;;;;5076926;28;20571;-79
2023/07/04 07:58:16;;;;;;;3.87;2.67;;;;;;;;;;5076613;28;20455;-77
2023/07/04 08:00:45;;;;;;;3.27;2.20;;;;;;;;;;5078985;28;20481;-77
2023/07/04 08:03:12;;;;;;;2.63;2.13;;;;;;;;;;5078476;28;20971;-76
2023/07/04 08:05:39;;;;;;;7.43;2.77;;;;;;;;;;5079404;28;20448;-78
2023/07/04 08:08:07;;;;;;;2.57;2.03;;;;;;;;;;5080622;28;20917;-79
2023/07/04 08:10:36;;;;;;;3.40;2.90;;;;;;;;;;5079666;28;20975;-79
2023/07/04 08:13:03;;;;;;;2.70;1.97;;;;;;;;;;5077079;28;20949;-76
2023/07/04 08:15:31;;;;;;;4.50;2.20;;;;;;;;;;5078736;28;20482;-77
2023/07/04 08:18:05;;;;;;;3.20;1.80;;;;;;;;;;5078894;28;20466;-78
2023/07/04 08:20:32;;;;;;;2.10;1.90;;;;;;;;;;5077296;28;20478;-76
2023/07/04 08:22:59;;;;;;;5.00;2.83;;;;;;;;;;5076407;28;20456;-77
2023/07/04 08:25:26;;;;;;;3.27;2.00;;;;;;;;;;5075613;28;20474;-76
2023/07/04 08:27:54;;;;;;;8.47;5.83;;;;;;;;;;5075814;28;20800;-76
2023/07/04 08:33:25;;;;;;;3.90;2.43;;;;;;;;;;5075994;28;20894;-76
2023/07/04 08:35:55;;;;;;;4.87;2.80;;;;;;;;;;5075742;28;20540;-76
2023/07/04 08:38:23;;;;;;;5.20;2.10;;;;;;;;;;5075260;28;20466;-76
2023/07/04 08:40:50;;;;;;;5.83;2.20;;;;;;;;;;5078259;28;20554;-75
2023/07/04 08:43:19;;;;;;;3.30;2.70;;;;;;;;;;5078206;28;20443;-78
2023/07/04 08:45:46;;;;;;;2.63;2.00;;;;;;;;;;5078383;28;20455;-78
2023/07/04 08:48:17;;;;;;;2.97;2.20;;;;;;;;;;5078718;28;20447;-78
2023/07/04 08:50:47;;;;;;;3.93;2.23;;;;;;;;;;5080294;28;20566;-77
2023/07/04 08:53:17;;;;;;;3.43;2.20;;;;;;;;;;5078972;28;20820;-78
2023/07/04 08:55:47;;;;;;;2.27;1.80;;;;;;;;;;5078016;28;20460;-78
2023/07/04 08:58:16;;;;;;;2.43;1.97;;;;;;;;;;5079412;28;20452;-77
2023/07/04 09:00:45;;;;;;;3.53;2.27;;;;;;;;;;5079541;28;20525;-78
2023/07/04 09:03:18;;;;;;;3.70;2.03;;;;;;;;;;5078835;28;20822;-78
2023/07/04 09:05:50;;;;;;;4.27;2.33;;;;;;;;;;5077335;28;20451;-77
2023/07/04 09:08:21;;;;;;;5.03;2.77;;;;;;;;;;5078392;28;20467;-78
2023/07/04 09:10:51;;;;;;;3.20;2.13;;;;;;;;;;5078320;28;20475;-77
2023/07/04 09:13:21;;;;;;;3.33;2.13;;;;;;;;;;5078442;28;20451;-78
2023/07/04 09:15:49;;;;;;;3.53;2.10;;;;;;;;;;5080143;28;20936;-78
2023/07/04 09:18:22;;;;;;;2.60;1.90;;;;;;;;;;5079146;28;20478;-78
2023/07/04 09:20:53;;;;;;;3.30;2.37;;;;;;;;;;5079473;28;20484;-78
2023/07/04 09:23:22;;;;;;;5.33;2.73;;;;;;;;;;5078762;28;20459;-78
2023/07/04 09:25:50;;;;;;;2.63;1.70;;;;;;;;;;5078928;28;20513;-78
2023/07/04 09:28:17;;;;;;;2.70;1.77;;;;;;;;;;5079163;28;20509;-78
2023/07/04 09:30:44;;;;;;;3.07;2.43;;;;;;;;;;5079097;28;20482;-78
2023/07/04 09:33:12;;;;;;;3.07;1.90;;;;;;;;;;5076971;28;20887;-78
2023/07/04 09:35:39;;;;;;;3.43;2.17;;;;;;;;;;5076990;28;20952;-78
2023/07/04 09:38:07;;;;;;;2.80;2.07;;;;;;;;;;5075096;28;20496;-76
2023/07/04 09:40:45;;;;;;;3.37;1.80;;;;;;;;;;5074805;28;20529;-76
2023/07/04 09:43:13;;;;;;;2.53;2.20;;;;;;;;;;5078143;28;20547;-78
2023/07/04 09:45:41;;;;;;;2.20;1.80;;;;;;;;;;5079088;28;20439;-78
2023/07/04 09:48:10;;;;;;;3.03;1.70;;;;;;;;;;5080011;28;20968;-78
2023/07/04 09:50:37;;;;;;;3.13;2.30;;;;;;;;;;5079682;28;20842;-78
2023/07/04 09:53:07;;;;;;;3.37;2.43;;;;;;;;;;5078740;28;20456;-78
2023/07/04 09:55:37;;;;;;;1.77;1.60;;;;;;;;;;5079203;28;20463;-78
2023/07/04 09:58:17;;;;;;;1.73;1.60;;;;;;;;;;5078690;28;20562;-78
2023/07/04 10:00:45;;;;;;;2.73;2.30;;;;;;;;;;5079515;28;20563;-77
2023/07/04 10:03:12;;;;;;;3.30;2.13;;;;;;;;;;5079958;28;20455;-78
2023/07/04 10:05:40;;;;;;;2.63;1.93;;;;;;;;;;5078059;28;20458;-76
2023/07/04 10:08:08;;;;;;;2.93;2.20;;;;;;;;;;5078631;28;20452;-78
2023/07/04 10:10:37;;;;;;;5.90;2.40;;;;;;;;;;5074814;28;20467;-76
2023/07/04 10:13:07;;;;;;;2.37;1.83;;;;;;;;;;5076514;28;20551;-78
2023/07/04 10:15:38;;;;;;;1.90;1.60;;;;;;;;;;5078280;28;20740;-78
2023/07/04 10:18:06;;;;;;;3.50;2.40;;;;;;;;;;5078527;28;20483;-78
2023/07/04 10:20:37;;;;;;;2.43;1.87;;;;;;;;;;5078618;28;21053;-78
2023/07/04 10:23:04;;;;;;;2.30;2.03;;;;;;;;;;5075787;28;20990;-76
2023/07/04 10:25:31;;;;;;;2.93;1.40;;;;;;;;;;5075708;28;20463;-77
2023/07/04 10:28:09;;;;;;;2.80;1.93;;;;;;;;;;5076462;28;20445;-78
2023/07/04 10:30:37;;;;;;;2.83;2.37;;;;;;;;;;5077919;28;20480;-78
2023/07/04 10:33:05;;;;;;;2.90;2.30;;;;;;;;;;5076722;28;20630;-76
2023/07/04 10:35:34;;;;;;;2.40;1.87;;;;;;;;;;5074449;28;20459;-76
2023/07/04 10:38:03;;;;;;;3.93;2.10;;;;;;;;;;5073599;28;20517;-76
2023/07/04 10:40:31;;;;;;;2.20;1.80;;;;;;;;;;5083049;28;20841;-76
2023/07/04 10:43:02;;;;;;;2.27;2.07;;;;;;;;;;5076424;28;20505;-78
2023/07/04 10:45:29;;;;;;;2.03;1.70;;;;;;;;;;5074531;28;20486;-76
2023/07/04 10:48:02;;;;;;;2.60;2.23;;;;;;;;;;5071893;28;20558;-76
2023/07/04 10:50:31;;;;;;;2.80;1.67;;;;;;;;;;5072248;28;20484;-76
2023/07/04 10:52:58;;;;;;;2.07;1.57;;;;;;;;;;5072615;28;20472;-76
2023/07/04 10:55:29;;;;;;;2.03;1.80;;;;;;;;;;5072165;28;20455;-76
2023/07/04 10:58:01;;;;;;;2.13;1.73;;;;;;;;;;5072230;28;20495;-76
2023/07/04 11:00:30;;;;;;;2.30;1.90;;;;;;;;;;5071955;28;20685;-76
2023/07/04 11:03:01;;;;;;;1.93;1.70;;;;;;;;;;5072455;28;20440;-76
2023/07/04 11:05:32;;;;;;;2.53;1.47;;;;;;;;;;5075924;28;20517;-78
2023/07/04 11:08:01;;;;;;;3.13;1.63;;;;;;;;;;5075678;28;20441;-78
2023/07/04 11:10:29;;;;;;;2.50;1.90;;;;;;;;;;5074502;28;20483;-78
2023/07/04 11:12:58;;;;;;;2.00;1.77;;;;;;;;;;5073666;28;20447;-77
2023/07/04 11:15:29;;;;;;;1.93;1.73;;;;;;;;;;5074008;28;20451;-78
2023/07/04 11:17:57;;;;;;;2.33;1.67;;;;;;;;;;5073695;28;20995;-78
2023/07/04 11:20:30;;;;;;;2.20;2.00;;;;;;;;;;5073311;28;20488;-77
2023/07/04 11:22:58;;;;;;;3.43;2.07;;;;;;;;;;5072958;28;20451;-77
2023/07/04 11:25:31;;;;;;;2.97;2.00;;;;;;;;;;5071753;28;20452;-77
2023/07/04 11:28:15;;;;;;;1.80;1.50;;;;;;;;;;5071999;28;20501;-78
2023/07/04 11:30:44;;;;;;;2.63;2.10;;;;;;;;;;5072129;28;20904;-77
2023/07/04 11:33:31;;;;;;;2.33;1.83;;;;;;;;;;5072197;28;20455;-77
2023/07/04 11:36:03;;;;;;;3.23;1.87;;;;;;;;;;5071886;28;20511;-77
2023/07/04 11:38:31;;;;;;;2.37;2.00;;;;;;;;;;5071572;28;20487;-77
2023/07/04 11:41:00;;;;;;;2.00;1.70;;;;;;;;;;5070280;28;20929;-77
2023/07/04 11:43:28;;;;;;;2.90;1.70;;;;;;;;;;5071176;28;20861;-77
2023/07/04 11:45:56;;;;;;;2.23;1.63;;;;;;;;;;5071455;28;20440;-77
2023/07/04 11:48:28;;;;;;;2.10;1.83;;;;;;;;;;5071555;28;20439;-77
2023/07/04 11:51:00;;;;;;;2.37;2.03;;;;;;;;;;5071428;28;20793;-77
2023/07/04 11:53:34;;;;;;;3.10;1.87;;;;;;;;;;5071335;28;20460;-77
2023/07/04 11:56:15;;;;;;;2.30;1.90;;;;;;;;;;5071980;28;20462;-77
2023/07/04 11:58:42;;;;;;;2.00;1.63;;;;;;;;;;5072554;28;20487;-77
2023/07/04 12:01:09;;;;;;;2.90;1.67;;;;;;;;;;5072890;28;20471;-77
2023/07/04 12:03:57;;;;;;;2.10;1.90;;;;;;;;;;5072564;28;20455;-77
2023/07/04 12:06:42;;;;;;;3.30;1.90;;;;;;;;;;5072373;28;20551;-77
2023/07/04 12:09:12;;;;;;;2.20;1.90;;;;;;;;;;5072614;28;20455;-77
2023/07/04 12:11:42;;;;;;;5.73;2.03;;;;;;;;;;5072528;28;20482;-77
2023/07/04 12:14:10;;;;;;;2.07;1.60;;;;;;;;;;5072237;28;20448;-77
2023/07/04 12:16:37;;;;;;;2.23;1.90;;;;;;;;;;5072286;28;20440;-77
2023/07/04 12:19:05;;;;;;;2.00;1.80;;;;;;;;;;5072401;28;20854;-77
2023/07/04 12:21:33;;;;;;;2.20;1.83;;;;;;;;;;5073347;28;20467;-77
2023/07/04 12:24:04;;;;;;;2.00;1.80;;;;;;;;;;5073105;28;20456;-77
2023/07/04 12:26:32;;;;;;;2.10;1.70;;;;;;;;;;5072835;28;20458;-78
2023/07/04 12:29:02;;;;;;;2.07;1.63;;;;;;;;;;5072863;28;20886;-77
2023/07/04 12:31:29;;;;;;;1.97;1.77;;;;;;;;;;5072952;28;20470;-77
2023/07/04 12:33:57;;;;;;;3.40;1.90;;;;;;;;;;5072365;28;20439;-77
2023/07/04 12:36:31;;;;;;;3.27;2.00;;;;;;;;;;5072337;28;20448;-77
2023/07/04 12:38:59;;;;;;;2.03;1.70;;;;;;;;;;5072807;28;21026;-78
2023/07/04 12:41:30;;;;;;;2.10;1.90;;;;;;;;;;5075052;28;20475;-77
2023/07/04 12:44:00;;;;;;;2.33;1.77;;;;;;;;;;5077122;28;20968;-78
2023/07/04 12:46:27;;;;;;;2.13;1.57;;;;;;;;;;5077884;28;20985;-77
2023/07/04 12:48:54;;;;;;;2.77;1.80;;;;;;;;;;5076865;28;20452;-77
2023/07/04 12:51:23;;;;;;;2.70;1.77;;;;;;;;;;5076787;28;20836;-77
2023/07/04 12:53:51;;;;;;;3.27;1.63;;;;;;;;;;5077267;28;20451;-77
2023/07/04 12:56:18;;;;;;;2.23;1.60;;;;;;;;;;5077030;28;20816;-77
2023/07/04 12:58:47;;;;;;;3.50;2.00;;;;;;;;;;5076767;28;20574;-77
2023/07/04 13:01:20;;;;;;;2.33;1.83;;;;;;;;;;5076354;28;20469;-77
2023/07/04 13:03:47;;;;;;;3.40;1.80;;;;;;;;;;5076435;28;20452;-77
2023/07/04 13:06:19;;;;;;;2.10;1.90;;;;;;;;;;5076808;28;20457;-77
2023/07/04 13:08:47;;;;;;;2.00;1.60;;;;;;;;;;5076774;28;20443;-77
2023/07/04 13:11:15;;;;;;;5.87;2.13;;;;;;;;;;5077689;28;20858;-77
2023/07/04 13:13:43;;;;;;;1.80;1.60;;;;;;;;;;5076753;28;20459;-77
2023/07/04 13:16:14;;;;;;;2.13;1.93;;;;;;;;;;5076544;28;20458;-77
2023/07/04 13:18:42;;;;;;;2.80;1.80;;;;;;;;;;5076474;28;20503;-77
2023/07/04 13:21:09;;;;;;;3.03;1.90;;;;;;;;;;5075050;28;20545;-77
2023/07/04 13:23:38;;;;;;;3.63;1.63;;;;;;;;;;5074846;28;20471;-77
2023/07/04 13:26:06;;;;;;;2.37;1.50;;;;;;;;;;5074683;28;20448;-77
2023/07/04 13:28:35;;;;;;;3.30;1.97;;;;;;;;;;5074554;28;20813;-77
2023/07/04 13:31:20;;;;;;;2.40;1.90;;;;;;;;;;5074602;28;20467;-76
2023/07/04 13:33:48;;;;;;;2.63;1.90;;;;;;;;;;5075983;28;20460;-77
2023/07/04 13:36:17;;;;;;;4.60;1.90;;;;;;;;;;5076759;28;20948;-77
2023/07/04 13:38:45;;;;;;;2.90;1.90;;;;;;;;;;5076188;28;20499;-77
2023/07/04 13:41:13;;;;;;;3.83;1.87;;;;;;;;;;5076735;28;20980;-77
2023/07/04 13:43:41;;;;;;;7.93;1.73;;;;;;;;;;5075621;28;20463;-77
2023/07/04 13:46:08;;;;;;;5.70;2.00;;;;;;;;;;5075911;28;20462;-77
2023/07/04 13:48:36;;;;;;;2.40;1.70;;;;;;;;;;5075388;28;20448;-77
2023/07/04 13:51:04;;;;;;;6.33;1.80;;;;;;;;;;5075742;28;20478;-77
2023/07/04 13:53:31;;;;;;;2.33;1.90;;;;;;;;;;5074079;28;20948;-76
2023/07/04 13:55:58;;;;;;;2.00;1.80;;;;;;;;;;5074475;28;20459;-77
2023/07/04 13:58:27;;;;;;;2.03;1.47;;;;;;;;;;5074055;28;20494;-76
2023/07/04 14:00:54;;;;;;;2.93;2.10;;;;;;;;;;5074183;28;20582;-76
2023/07/04 14:03:21;;;;;;;2.60;1.77;;;;;;;;;;5074328;28;20447;-77
2023/07/04 14:05:50;;;;;;;2.40;1.97;;;;;;;;;;5074168;28;20561;-77
2023/07/04 14:08:17;;;;;;;2.53;1.90;;;;;;;;;;5073717;28;20454;-77
2023/07/04 14:10:44;;;;;;;2.20;1.60;;;;;;;;;;5073346;28;20491;-76
2023/07/04 14:13:11;;;;;;;2.27;1.67;;;;;;;;;;5073529;28;20805;-77
2023/07/04 14:15:38;;;;;;;2.63;1.83;;;;;;;;;;5073226;28;20466;-76
2023/07/04 14:18:05;;;;;;;2.30;1.73;;;;;;;;;;5073272;28;20475;-76
2023/07/04 14:20:32;;;;;;;3.17;1.97;;;;;;;;;;5072966;28;20502;-76
2023/07/04 14:23:01;;;;;;;6.17;2.10;;;;;;;;;;5073369;28;20563;-76
2023/07/04 14:25:28;;;;;;;4.57;2.20;;;;;;;;;;5072928;28;20459;-76
2023/07/04 14:27:55;;;;;;;2.73;1.77;;;;;;;;;;5073055;28;20452;-76
2023/07/04 14:30:22;;;;;;;9.27;4.13;;;;;;;;;;5073151;28;20476;-75
2023/07/04 14:32:49;;;;;;;2.13;1.93;;;;;;;;;;5073315;28;20954;-76
2023/07/04 14:35:17;;;;;;;3.40;1.83;;;;;;;;;;5072867;28;20846;-76
2023/07/04 14:37:44;;;;;;;2.20;1.70;;;;;;;;;;5072845;28;20459;-76
2023/07/04 14:40:13;;;;;;;4.10;2.27;;;;;;;;;;5072911;28;20476;-75
2023/07/04 14:42:40;;;;;;;2.33;1.90;;;;;;;;;;5072829;28;20463;-76
2023/07/04 14:45:07;;;;;;;1.90;1.60;;;;;;;;;;5072690;28;20460;-76
2023/07/04 14:47:35;;;;;;;2.83;1.60;;;;;;;;;;5072432;28;20929;-76
2023/07/04 14:50:03;;;;;;;2.00;1.60;;;;;;;;;;5072495;28;20824;-76